sensor_id;sensor_type;location;lat;lon;timestamp;P1;durP1;ratioP1;P2;durP2;ratioP2
51499;SDS011;39101;53.478;6.158;2024-03-02T00:00:08;5.93;;;2.80;;
51499;SDS011;39101;53.478;6.158;2024-03-02T00:02:42;5.60;;;3.17;;
51499;SDS011;39101;53.478;6.158;2024-03-02T00:05:13;7.57;;;3.50;;
51499;SDS011;39101;53.478;6.158;2024-03-02T00:07:44;8.33;;;3.27;;
51499;SDS011;39101;53.478;6.158;2024-03-02T00:10:11;6.70;;;3.37;;
51499;SDS011;39101;53.478;6.158;2024-03-02T00:12:41;7.82;;;3.25;;
51499;SDS011;39101;53.478;6.158;2024-03-02T00:17:55;5.33;;;3.37;;
51499;SDS011;39101;53.478;6.158;2024-03-02T00:20:21;7.13;;;3.20;;
51499;SDS011;39101;53.478;6.158;2024-03-02T00:22:48;5.27;;;3.20;;
51499;SDS011;39101;53.478;6.158;2024-03-02T00:25:15;8.03;;;3.97;;
51499;SDS011;39101;53.478;6.158;2024-03-02T00:27:41;8.60;;;3.63;;
51499;SDS011;39101;53.478;6.158;2024-03-02T00:33:13;6.77;;;3.70;;
51499;SDS011;39101;53.478;6.158;2024-03-02T00:35:39;7.23;;;4.30;;
51499;SDS011;39101;53.478;6.158;2024-03-02T00:38:05;10.17;;;4.13;;
51499;SDS011;39101;53.478;6.158;2024-03-02T00:40:31;6.90;;;4.00;;
51499;SDS011;39101;53.478;6.158;2024-03-02T00:42:57;7.17;;;3.73;;
51499;SDS011;39101;53.478;6.158;2024-03-02T00:45:24;8.37;;;4.23;;
51499;SDS011;39101;53.478;6.158;2024-03-02T00:47:51;7.47;;;3.80;;
51499;SDS011;39101;53.478;6.158;2024-03-02T00:50:18;6.63;;;3.87;;
51499;SDS011;39101;53.478;6.158;2024-03-02T00:52:44;6.43;;;3.67;;
51499;SDS011;39101;53.478;6.158;2024-03-02T00:55:10;7.60;;;4.23;;
51499;SDS011;39101;53.478;6.158;2024-03-02T00:57:37;8.07;;;3.90;;
51499;SDS011;39101;53.478;6.158;2024-03-02T01:00:03;6.77;;;3.80;;
51499;SDS011;39101;53.478;6.158;2024-03-02T01:02:42;6.72;;;3.95;;
51499;SDS011;39101;53.478;6.158;2024-03-02T01:05:09;6.73;;;4.13;;
51499;SDS011;39101;53.478;6.158;2024-03-02T01:07:34;6.47;;;3.40;;
51499;SDS011;39101;53.478;6.158;2024-03-02T01:10:02;6.27;;;3.73;;
51499;SDS011;39101;53.478;6.158;2024-03-02T01:12:28;9.60;;;4.33;;
51499;SDS011;39101;53.478;6.158;2024-03-02T01:14:54;6.63;;;3.80;;
51499;SDS011;39101;53.478;6.158;2024-03-02T01:17:20;7.07;;;3.70;;
51499;SDS011;39101;53.478;6.158;2024-03-02T01:19:45;7.93;;;4.37;;
51499;SDS011;39101;53.478;6.158;2024-03-02T01:22:11;7.10;;;3.63;;
51499;SDS011;39101;53.478;6.158;2024-03-02T01:24:37;7.53;;;3.40;;
51499;SDS011;39101;53.478;6.158;2024-03-02T01:27:03;6.50;;;3.57;;
51499;SDS011;39101;53.478;6.158;2024-03-02T01:29:29;9.10;;;3.90;;
51499;SDS011;39101;53.478;6.158;2024-03-02T01:31:54;9.67;;;4.07;;
51499;SDS011;39101;53.478;6.158;2024-03-02T01:34:20;6.60;;;3.83;;
51499;SDS011;39101;53.478;6.158;2024-03-02T01:36:46;8.40;;;4.30;;
51499;SDS011;39101;53.478;6.158;2024-03-02T01:39:12;6.93;;;4.00;;
51499;SDS011;39101;53.478;6.158;2024-03-02T01:41:37;6.90;;;3.67;;
51499;SDS011;39101;53.478;6.158;2024-03-02T01:44:03;7.97;;;3.67;;
51499;SDS011;39101;53.478;6.158;2024-03-02T01:46:29;6.57;;;3.93;;
51499;SDS011;39101;53.478;6.158;2024-03-02T01:48:55;6.63;;;3.87;;
51499;SDS011;39101;53.478;6.158;2024-03-02T01:51:20;6.07;;;3.70;;
51499;SDS011;39101;53.478;6.158;2024-03-02T01:53:46;9.57;;;4.37;;
51499;SDS011;39101;53.478;6.158;2024-03-02T01:56:12;6.97;;;3.73;;
51499;SDS011;39101;53.478;6.158;2024-03-02T01:58:37;6.97;;;3.70;;
51499;SDS011;39101;53.478;6.158;2024-03-02T02:01:03;7.00;;;3.20;;
51499;SDS011;39101;53.478;6.158;2024-03-02T02:03:29;5.07;;;3.13;;
51499;SDS011;39101;53.478;6.158;2024-03-02T02:05:54;5.73;;;3.40;;
51499;SDS011;39101;53.478;6.158;2024-03-02T02:08:20;8.43;;;3.60;;
51499;SDS011;39101;53.478;6.158;2024-03-02T02:10:46;5.20;;;3.27;;
51499;SDS011;39101;53.478;6.158;2024-03-02T02:13:11;8.80;;;3.43;;
51499;SDS011;39101;53.478;6.158;2024-03-02T02:15:37;5.57;;;2.90;;
51499;SDS011;39101;53.478;6.158;2024-03-02T02:18:03;6.37;;;3.30;;
51499;SDS011;39101;53.478;6.158;2024-03-02T02:20:29;6.57;;;3.30;;
51499;SDS011;39101;53.478;6.158;2024-03-02T02:25:26;5.10;;;2.90;;
51499;SDS011;39101;53.478;6.158;2024-03-02T02:27:53;6.10;;;3.40;;
51499;SDS011;39101;53.478;6.158;2024-03-02T02:30:20;5.13;;;2.93;;
51499;SDS011;39101;53.478;6.158;2024-03-02T02:32:50;4.60;;;2.83;;
51499;SDS011;39101;53.478;6.158;2024-03-02T02:35:16;7.70;;;3.87;;
51499;SDS011;39101;53.478;6.158;2024-03-02T02:37:42;5.20;;;3.03;;
51499;SDS011;39101;53.478;6.158;2024-03-02T02:40:08;4.90;;;2.53;;
51499;SDS011;39101;53.478;6.158;2024-03-02T02:42:34;5.13;;;3.10;;
51499;SDS011;39101;53.478;6.158;2024-03-02T02:45:00;7.30;;;3.10;;
51499;SDS011;39101;53.478;6.158;2024-03-02T02:47:26;17.10;;;4.30;;
51499;SDS011;39101;53.478;6.158;2024-03-02T02:49:51;7.63;;;3.70;;
51499;SDS011;39101;53.478;6.158;2024-03-02T02:52:17;5.80;;;3.10;;
51499;SDS011;39101;53.478;6.158;2024-03-02T02:54:43;6.30;;;2.90;;
51499;SDS011;39101;53.478;6.158;2024-03-02T02:57:09;5.57;;;3.10;;
51499;SDS011;39101;53.478;6.158;2024-03-02T02:59:35;5.93;;;3.07;;
51499;SDS011;39101;53.478;6.158;2024-03-02T03:02:01;8.57;;;3.00;;
51499;SDS011;39101;53.478;6.158;2024-03-02T03:04:26;6.80;;;3.37;;
51499;SDS011;39101;53.478;6.158;2024-03-02T03:06:52;6.40;;;2.87;;
51499;SDS011;39101;53.478;6.158;2024-03-02T03:09:18;4.40;;;2.93;;
51499;SDS011;39101;53.478;6.158;2024-03-02T03:11:43;6.37;;;2.83;;
51499;SDS011;39101;53.478;6.158;2024-03-02T03:14:09;7.00;;;3.00;;
51499;SDS011;39101;53.478;6.158;2024-03-02T03:16:35;6.63;;;3.07;;
51499;SDS011;39101;53.478;6.158;2024-03-02T03:19:01;5.27;;;3.23;;
51499;SDS011;39101;53.478;6.158;2024-03-02T03:21:26;7.47;;;3.13;;
51499;SDS011;39101;53.478;6.158;2024-03-02T03:23:52;5.73;;;2.93;;
51499;SDS011;39101;53.478;6.158;2024-03-02T03:26:18;5.13;;;3.10;;
51499;SDS011;39101;53.478;6.158;2024-03-02T03:28:43;6.20;;;3.07;;
51499;SDS011;39101;53.478;6.158;2024-03-02T03:31:09;6.07;;;2.90;;
51499;SDS011;39101;53.478;6.158;2024-03-02T03:33:35;6.50;;;3.03;;
51499;SDS011;39101;53.478;6.158;2024-03-02T03:36:01;4.73;;;3.07;;
51499;SDS011;39101;53.478;6.158;2024-03-02T03:38:28;5.47;;;3.40;;
51499;SDS011;39101;53.478;6.158;2024-03-02T03:40:54;5.13;;;2.90;;
51499;SDS011;39101;53.478;6.158;2024-03-02T03:43:20;6.03;;;3.07;;
51499;SDS011;39101;53.478;6.158;2024-03-02T03:45:46;5.47;;;2.87;;
51499;SDS011;39101;53.478;6.158;2024-03-02T03:48:11;6.50;;;2.93;;
51499;SDS011;39101;53.478;6.158;2024-03-02T03:50:37;5.67;;;3.10;;
51499;SDS011;39101;53.478;6.158;2024-03-02T03:53:03;7.53;;;3.10;;
51499;SDS011;39101;53.478;6.158;2024-03-02T03:55:29;9.77;;;4.03;;
51499;SDS011;39101;53.478;6.158;2024-03-02T03:57:54;4.80;;;2.97;;
51499;SDS011;39101;53.478;6.158;2024-03-02T04:00:20;5.37;;;3.20;;
51499;SDS011;39101;53.478;6.158;2024-03-02T04:02:46;5.57;;;3.17;;
51499;SDS011;39101;53.478;6.158;2024-03-02T04:05:11;6.50;;;3.20;;
51499;SDS011;39101;53.478;6.158;2024-03-02T04:07:37;4.70;;;2.87;;
51499;SDS011;39101;53.478;6.158;2024-03-02T04:10:08;9.03;;;3.40;;
51499;SDS011;39101;53.478;6.158;2024-03-02T04:12:38;7.82;;;3.15;;
51499;SDS011;39101;53.478;6.158;2024-03-02T04:15:07;6.23;;;3.07;;
51499;SDS011;39101;53.478;6.158;2024-03-02T04:17:33;6.17;;;3.37;;
51499;SDS011;39101;53.478;6.158;2024-03-02T04:20:00;6.17;;;3.30;;
51499;SDS011;39101;53.478;6.158;2024-03-02T04:22:27;6.07;;;2.93;;
51499;SDS011;39101;53.478;6.158;2024-03-02T04:24:53;7.17;;;3.10;;
51499;SDS011;39101;53.478;6.158;2024-03-02T04:27:19;5.37;;;3.33;;
51499;SDS011;39101;53.478;6.158;2024-03-02T04:29:45;5.53;;;3.13;;
51499;SDS011;39101;53.478;6.158;2024-03-02T04:32:10;6.73;;;3.23;;
51499;SDS011;39101;53.478;6.158;2024-03-02T04:34:36;4.67;;;2.67;;
51499;SDS011;39101;53.478;6.158;2024-03-02T04:37:01;5.30;;;3.30;;
51499;SDS011;39101;53.478;6.158;2024-03-02T04:39:27;4.93;;;3.10;;
51499;SDS011;39101;53.478;6.158;2024-03-02T04:41:53;5.30;;;3.10;;
51499;SDS011;39101;53.478;6.158;2024-03-02T04:44:19;5.77;;;3.47;;
51499;SDS011;39101;53.478;6.158;2024-03-02T04:46:45;7.50;;;3.20;;
51499;SDS011;39101;53.478;6.158;2024-03-02T04:49:10;5.17;;;3.27;;
51499;SDS011;39101;53.478;6.158;2024-03-02T04:51:36;6.10;;;3.27;;
51499;SDS011;39101;53.478;6.158;2024-03-02T04:54:01;6.67;;;3.40;;
51499;SDS011;39101;53.478;6.158;2024-03-02T04:56:27;7.30;;;3.47;;
51499;SDS011;39101;53.478;6.158;2024-03-02T04:58:53;6.40;;;3.07;;
51499;SDS011;39101;53.478;6.158;2024-03-02T05:01:18;6.17;;;3.20;;
51499;SDS011;39101;53.478;6.158;2024-03-02T05:03:44;6.10;;;3.67;;
51499;SDS011;39101;53.478;6.158;2024-03-02T05:06:10;5.73;;;3.13;;
51499;SDS011;39101;53.478;6.158;2024-03-02T05:08:35;9.13;;;3.40;;
51499;SDS011;39101;53.478;6.158;2024-03-02T05:11:01;5.33;;;3.30;;
51499;SDS011;39101;53.478;6.158;2024-03-02T05:13:47;7.73;;;3.50;;
51499;SDS011;39101;53.478;6.158;2024-03-02T05:16:13;4.80;;;3.37;;
51499;SDS011;39101;53.478;6.158;2024-03-02T05:18:39;5.90;;;3.23;;
51499;SDS011;39101;53.478;6.158;2024-03-02T05:21:04;5.43;;;3.20;;
51499;SDS011;39101;53.478;6.158;2024-03-02T05:23:30;6.77;;;3.20;;
51499;SDS011;39101;53.478;6.158;2024-03-02T05:25:56;4.70;;;2.90;;
51499;SDS011;39101;53.478;6.158;2024-03-02T05:28:21;8.40;;;3.30;;
51499;SDS011;39101;53.478;6.158;2024-03-02T05:30:47;4.70;;;2.87;;
51499;SDS011;39101;53.478;6.158;2024-03-02T05:33:13;6.80;;;3.60;;
51499;SDS011;39101;53.478;6.158;2024-03-02T05:35:38;6.33;;;3.30;;
51499;SDS011;39101;53.478;6.158;2024-03-02T05:38:04;4.47;;;2.87;;
51499;SDS011;39101;53.478;6.158;2024-03-02T05:40:30;9.50;;;3.80;;
51499;SDS011;39101;53.478;6.158;2024-03-02T05:42:56;7.60;;;3.60;;
51499;SDS011;39101;53.478;6.158;2024-03-02T05:45:21;4.63;;;3.30;;
51499;SDS011;39101;53.478;6.158;2024-03-02T05:47:47;4.50;;;2.80;;
51499;SDS011;39101;53.478;6.158;2024-03-02T05:50:12;5.70;;;3.37;;
51499;SDS011;39101;53.478;6.158;2024-03-02T05:52:38;6.50;;;3.83;;
51499;SDS011;39101;53.478;6.158;2024-03-02T05:55:04;4.13;;;2.00;;
51499;SDS011;39101;53.478;6.158;2024-03-02T05:57:30;4.87;;;1.87;;
51499;SDS011;39101;53.478;6.158;2024-03-02T06:00:24;3.57;;;1.83;;
51499;SDS011;39101;53.478;6.158;2024-03-02T06:02:50;4.90;;;1.90;;
51499;SDS011;39101;53.478;6.158;2024-03-02T06:05:16;2.77;;;1.70;;
51499;SDS011;39101;53.478;6.158;2024-03-02T06:07:43;3.13;;;2.00;;
51499;SDS011;39101;53.478;6.158;2024-03-02T06:10:09;2.83;;;1.97;;
51499;SDS011;39101;53.478;6.158;2024-03-02T06:12:36;4.80;;;1.63;;
51499;SDS011;39101;53.478;6.158;2024-03-02T06:15:02;2.53;;;1.30;;
51499;SDS011;39101;53.478;6.158;2024-03-02T06:17:29;1.83;;;1.03;;
51499;SDS011;39101;53.478;6.158;2024-03-02T06:19:55;1.20;;;0.93;;
51499;SDS011;39101;53.478;6.158;2024-03-02T06:22:21;1.80;;;1.20;;
51499;SDS011;39101;53.478;6.158;2024-03-02T06:24:49;0.97;;;0.80;;
51499;SDS011;39101;53.478;6.158;2024-03-02T06:27:15;1.00;;;0.70;;
51499;SDS011;39101;53.478;6.158;2024-03-02T06:29:41;2.73;;;1.00;;
51499;SDS011;39101;53.478;6.158;2024-03-02T06:32:07;1.90;;;0.80;;
51499;SDS011;39101;53.478;6.158;2024-03-02T06:34:33;0.73;;;0.67;;
51499;SDS011;39101;53.478;6.158;2024-03-02T06:36:58;1.43;;;0.80;;
51499;SDS011;39101;53.478;6.158;2024-03-02T06:39:24;2.87;;;0.90;;
51499;SDS011;39101;53.478;6.158;2024-03-02T06:41:51;2.97;;;0.70;;
51499;SDS011;39101;53.478;6.158;2024-03-02T06:44:17;1.63;;;0.70;;
51499;SDS011;39101;53.478;6.158;2024-03-02T06:46:42;1.80;;;1.07;;
51499;SDS011;39101;53.478;6.158;2024-03-02T06:49:08;1.90;;;0.70;;
51499;SDS011;39101;53.478;6.158;2024-03-02T06:51:35;3.10;;;1.10;;
51499;SDS011;39101;53.478;6.158;2024-03-02T06:54:01;2.13;;;1.07;;
51499;SDS011;39101;53.478;6.158;2024-03-02T06:56:27;1.27;;;0.80;;
51499;SDS011;39101;53.478;6.158;2024-03-02T06:58:53;1.93;;;1.10;;
51499;SDS011;39101;53.478;6.158;2024-03-02T07:01:18;2.63;;;0.70;;
51499;SDS011;39101;53.478;6.158;2024-03-02T07:03:45;2.90;;;0.90;;
51499;SDS011;39101;53.478;6.158;2024-03-02T07:06:11;0.77;;;0.77;;
51499;SDS011;39101;53.478;6.158;2024-03-02T07:08:37;0.80;;;0.80;;
51499;SDS011;39101;53.478;6.158;2024-03-02T07:11:02;2.27;;;1.00;;
51499;SDS011;39101;53.478;6.158;2024-03-02T07:13:28;1.27;;;0.90;;
51499;SDS011;39101;53.478;6.158;2024-03-02T07:15:54;2.47;;;1.00;;
51499;SDS011;39101;53.478;6.158;2024-03-02T07:18:39;0.70;;;0.70;;
51499;SDS011;39101;53.478;6.158;2024-03-02T07:21:10;1.60;;;0.73;;
51499;SDS011;39101;53.478;6.158;2024-03-02T07:23:36;1.40;;;1.10;;
51499;SDS011;39101;53.478;6.158;2024-03-02T07:26:01;2.63;;;1.10;;
51499;SDS011;39101;53.478;6.158;2024-03-02T07:28:28;1.23;;;1.00;;
51499;SDS011;39101;53.478;6.158;2024-03-02T07:31:01;1.23;;;0.90;;
51499;SDS011;39101;53.478;6.158;2024-03-02T07:33:28;3.00;;;1.20;;
51499;SDS011;39101;53.478;6.158;2024-03-02T07:35:54;1.60;;;1.10;;
51499;SDS011;39101;53.478;6.158;2024-03-02T07:38:20;1.67;;;1.00;;
51499;SDS011;39101;53.478;6.158;2024-03-02T07:40:47;1.43;;;0.90;;
51499;SDS011;39101;53.478;6.158;2024-03-02T07:43:16;1.03;;;0.80;;
51499;SDS011;39101;53.478;6.158;2024-03-02T07:45:42;3.10;;;1.00;;
51499;SDS011;39101;53.478;6.158;2024-03-02T07:48:08;1.73;;;0.90;;
51499;SDS011;39101;53.478;6.158;2024-03-02T07:50:34;1.40;;;1.00;;
51499;SDS011;39101;53.478;6.158;2024-03-02T07:53:03;2.03;;;0.90;;
51499;SDS011;39101;53.478;6.158;2024-03-02T07:55:29;1.43;;;1.00;;
51499;SDS011;39101;53.478;6.158;2024-03-02T07:57:55;1.33;;;0.83;;
51499;SDS011;39101;53.478;6.158;2024-03-02T08:00:21;1.10;;;0.80;;
51499;SDS011;39101;53.478;6.158;2024-03-02T08:02:48;1.93;;;0.90;;
51499;SDS011;39101;53.478;6.158;2024-03-02T08:05:15;1.27;;;0.80;;
51499;SDS011;39101;53.478;6.158;2024-03-02T08:07:44;1.40;;;0.90;;
51499;SDS011;39101;53.478;6.158;2024-03-02T08:10:10;3.40;;;1.00;;
51499;SDS011;39101;53.478;6.158;2024-03-02T08:12:36;1.27;;;0.80;;
51499;SDS011;39101;53.478;6.158;2024-03-02T08:15:02;1.40;;;0.67;;
51499;SDS011;39101;53.478;6.158;2024-03-02T08:17:27;1.33;;;0.97;;
51499;SDS011;39101;53.478;6.158;2024-03-02T08:19:53;2.57;;;1.00;;
51499;SDS011;39101;53.478;6.158;2024-03-02T08:22:19;1.90;;;1.07;;
51499;SDS011;39101;53.478;6.158;2024-03-02T08:24:45;2.20;;;0.80;;
51499;SDS011;39101;53.478;6.158;2024-03-02T08:27:11;2.67;;;1.20;;
51499;SDS011;39101;53.478;6.158;2024-03-02T08:29:37;3.07;;;0.90;;
51499;SDS011;39101;53.478;6.158;2024-03-02T08:32:03;1.93;;;0.73;;
51499;SDS011;39101;53.478;6.158;2024-03-02T08:34:29;3.97;;;1.00;;
51499;SDS011;39101;53.478;6.158;2024-03-02T08:36:55;1.90;;;0.90;;
51499;SDS011;39101;53.478;6.158;2024-03-02T08:39:21;2.20;;;0.60;;
51499;SDS011;39101;53.478;6.158;2024-03-02T08:41:47;1.47;;;0.70;;
51499;SDS011;39101;53.478;6.158;2024-03-02T08:44:13;3.27;;;0.83;;
51499;SDS011;39101;53.478;6.158;2024-03-02T08:46:40;1.83;;;1.20;;
51499;SDS011;39101;53.478;6.158;2024-03-02T08:49:06;4.67;;;1.00;;
51499;SDS011;39101;53.478;6.158;2024-03-02T08:51:32;2.67;;;0.67;;
51499;SDS011;39101;53.478;6.158;2024-03-02T08:53:58;2.37;;;0.70;;
51499;SDS011;39101;53.478;6.158;2024-03-02T08:56:25;1.33;;;0.83;;
51499;SDS011;39101;53.478;6.158;2024-03-02T08:58:51;1.23;;;0.63;;
51499;SDS011;39101;53.478;6.158;2024-03-02T09:01:17;4.13;;;0.93;;
51499;SDS011;39101;53.478;6.158;2024-03-02T09:03:44;4.20;;;0.90;;
51499;SDS011;39101;53.478;6.158;2024-03-02T09:06:11;2.73;;;0.83;;
51499;SDS011;39101;53.478;6.158;2024-03-02T09:08:37;2.20;;;0.70;;
51499;SDS011;39101;53.478;6.158;2024-03-02T09:11:04;2.40;;;0.87;;
51499;SDS011;39101;53.478;6.158;2024-03-02T09:13:33;2.43;;;0.87;;
51499;SDS011;39101;53.478;6.158;2024-03-02T09:15:58;2.63;;;0.70;;
51499;SDS011;39101;53.478;6.158;2024-03-02T09:18:24;3.23;;;0.87;;
51499;SDS011;39101;53.478;6.158;2024-03-02T09:20:50;1.63;;;0.77;;
51499;SDS011;39101;53.478;6.158;2024-03-02T09:23:15;2.47;;;0.97;;
51499;SDS011;39101;53.478;6.158;2024-03-02T09:25:41;2.50;;;1.00;;
51499;SDS011;39101;53.478;6.158;2024-03-02T09:28:07;3.40;;;1.10;;
51499;SDS011;39101;53.478;6.158;2024-03-02T09:30:32;3.63;;;1.00;;
51499;SDS011;39101;53.478;6.158;2024-03-02T09:32:58;4.03;;;1.00;;
51499;SDS011;39101;53.478;6.158;2024-03-02T09:35:24;2.40;;;1.03;;
51499;SDS011;39101;53.478;6.158;2024-03-02T09:37:50;2.80;;;1.53;;
51499;SDS011;39101;53.478;6.158;2024-03-02T09:40:16;2.80;;;1.10;;
51499;SDS011;39101;53.478;6.158;2024-03-02T09:42:42;2.67;;;1.20;;
51499;SDS011;39101;53.478;6.158;2024-03-02T09:45:08;4.60;;;1.63;;
51499;SDS011;39101;53.478;6.158;2024-03-02T09:47:35;3.33;;;1.00;;
51499;SDS011;39101;53.478;6.158;2024-03-02T09:50:01;5.57;;;1.30;;
51499;SDS011;39101;53.478;6.158;2024-03-02T09:52:26;2.50;;;1.40;;
51499;SDS011;39101;53.478;6.158;2024-03-02T09:54:52;2.90;;;1.03;;
51499;SDS011;39101;53.478;6.158;2024-03-02T09:57:18;4.23;;;1.17;;
51499;SDS011;39101;53.478;6.158;2024-03-02T09:59:44;3.83;;;1.07;;
51499;SDS011;39101;53.478;6.158;2024-03-02T10:02:10;4.47;;;1.07;;
51499;SDS011;39101;53.478;6.158;2024-03-02T10:04:36;2.23;;;0.90;;
51499;SDS011;39101;53.478;6.158;2024-03-02T10:07:15;3.27;;;0.90;;
51499;SDS011;39101;53.478;6.158;2024-03-02T10:09:45;2.73;;;0.70;;
51499;SDS011;39101;53.478;6.158;2024-03-02T10:12:12;2.53;;;0.90;;
51499;SDS011;39101;53.478;6.158;2024-03-02T10:14:39;4.43;;;1.17;;
51499;SDS011;39101;53.478;6.158;2024-03-02T10:17:06;2.43;;;1.13;;
51499;SDS011;39101;53.478;6.158;2024-03-02T10:19:33;2.17;;;1.17;;
51499;SDS011;39101;53.478;6.158;2024-03-02T10:22:00;4.50;;;1.10;;
51499;SDS011;39101;53.478;6.158;2024-03-02T10:24:28;3.63;;;0.90;;
51499;SDS011;39101;53.478;6.158;2024-03-02T10:27:16;2.90;;;0.80;;
51499;SDS011;39101;53.478;6.158;2024-03-02T10:29:46;4.93;;;1.20;;
51499;SDS011;39101;53.478;6.158;2024-03-02T10:32:13;3.40;;;0.83;;
51499;SDS011;39101;53.478;6.158;2024-03-02T10:34:45;3.13;;;1.10;;
51499;SDS011;39101;53.478;6.158;2024-03-02T10:37:12;2.83;;;1.30;;
51499;SDS011;39101;53.478;6.158;2024-03-02T10:39:38;2.87;;;0.80;;
51499;SDS011;39101;53.478;6.158;2024-03-02T10:42:08;3.40;;;0.90;;
51499;SDS011;39101;53.478;6.158;2024-03-02T10:44:34;6.13;;;1.40;;
51499;SDS011;39101;53.478;6.158;2024-03-02T10:47:04;2.47;;;0.70;;
51499;SDS011;39101;53.478;6.158;2024-03-02T10:49:30;4.22;;;0.95;;
51499;SDS011;39101;53.478;6.158;2024-03-02T10:51:58;5.23;;;0.97;;
51499;SDS011;39101;53.478;6.158;2024-03-02T10:54:24;4.87;;;1.87;;
51499;SDS011;39101;53.478;6.158;2024-03-02T10:56:55;6.13;;;0.90;;
51499;SDS011;39101;53.478;6.158;2024-03-02T10:59:28;4.60;;;0.70;;
51499;SDS011;39101;53.478;6.158;2024-03-02T11:01:59;1.23;;;0.80;;
51499;SDS011;39101;53.478;6.158;2024-03-02T11:04:28;1.80;;;0.70;;
51499;SDS011;39101;53.478;6.158;2024-03-02T11:09:29;6.70;;;1.80;;
51499;SDS011;39101;53.478;6.158;2024-03-02T11:12:00;2.40;;;0.70;;
51499;SDS011;39101;53.478;6.158;2024-03-02T11:14:27;5.13;;;1.52;;
51499;SDS011;39101;53.478;6.158;2024-03-02T11:16:56;3.40;;;0.90;;
51499;SDS011;39101;53.478;6.158;2024-03-02T11:19:22;2.87;;;0.90;;
51499;SDS011;39101;53.478;6.158;2024-03-02T11:21:49;2.97;;;0.93;;
51499;SDS011;39101;53.478;6.158;2024-03-02T11:26:49;3.23;;;0.80;;
51499;SDS011;39101;53.478;6.158;2024-03-02T11:32:03;4.00;;;0.90;;
51499;SDS011;39101;53.478;6.158;2024-03-02T11:36:56;0.93;;;0.80;;
51499;SDS011;39101;53.478;6.158;2024-03-02T11:39:22;3.33;;;0.97;;
51499;SDS011;39101;53.478;6.158;2024-03-02T11:41:48;5.15;;;1.15;;
51499;SDS011;39101;53.478;6.158;2024-03-02T11:44:14;6.43;;;1.00;;
51499;SDS011;39101;53.478;6.158;2024-03-02T11:46:41;3.17;;;0.70;;
51499;SDS011;39101;53.478;6.158;2024-03-02T11:49:06;2.15;;;0.75;;
51499;SDS011;39101;53.478;6.158;2024-03-02T11:51:33;2.28;;;0.73;;
51499;SDS011;39101;53.478;6.158;2024-03-02T11:54:00;2.00;;;0.80;;
51499;SDS011;39101;53.478;6.158;2024-03-02T11:56:27;2.42;;;0.80;;
51499;SDS011;39101;53.478;6.158;2024-03-02T11:58:55;2.38;;;0.85;;
51499;SDS011;39101;53.478;6.158;2024-03-02T12:01:22;3.30;;;0.88;;
51499;SDS011;39101;53.478;6.158;2024-03-02T12:03:48;3.28;;;0.98;;
51499;SDS011;39101;53.478;6.158;2024-03-02T12:06:14;4.38;;;0.93;;
51499;SDS011;39101;53.478;6.158;2024-03-02T12:08:40;2.75;;;0.80;;
51499;SDS011;39101;53.478;6.158;2024-03-02T12:11:06;3.85;;;0.80;;
51499;SDS011;39101;53.478;6.158;2024-03-02T12:13:32;2.15;;;0.68;;
51499;SDS011;39101;53.478;6.158;2024-03-02T12:15:59;1.52;;;0.60;;
51499;SDS011;39101;53.478;6.158;2024-03-02T12:18:24;2.50;;;1.00;;
51499;SDS011;39101;53.478;6.158;2024-03-02T12:20:50;2.47;;;0.80;;
51499;SDS011;39101;53.478;6.158;2024-03-02T12:23:23;3.58;;;0.90;;
51499;SDS011;39101;53.478;6.158;2024-03-02T12:25:49;2.67;;;0.80;;
51499;SDS011;39101;53.478;6.158;2024-03-02T12:28:15;3.28;;;0.90;;
51499;SDS011;39101;53.478;6.158;2024-03-02T12:30:41;2.03;;;0.70;;
51499;SDS011;39101;53.478;6.158;2024-03-02T12:33:07;2.22;;;0.93;;
51499;SDS011;39101;53.478;6.158;2024-03-02T12:35:33;2.90;;;0.70;;
51499;SDS011;39101;53.478;6.158;2024-03-02T12:37:58;2.60;;;0.90;;
51499;SDS011;39101;53.478;6.158;2024-03-02T12:40:24;3.22;;;1.00;;
51499;SDS011;39101;53.478;6.158;2024-03-02T12:42:50;3.40;;;0.90;;
51499;SDS011;39101;53.478;6.158;2024-03-02T12:45:15;4.65;;;1.23;;
51499;SDS011;39101;53.478;6.158;2024-03-02T12:47:48;1.58;;;0.90;;
51499;SDS011;39101;53.478;6.158;2024-03-02T12:50:14;3.15;;;0.93;;
51499;SDS011;39101;53.478;6.158;2024-03-02T12:52:40;3.50;;;1.10;;
51499;SDS011;39101;53.478;6.158;2024-03-02T12:55:06;3.63;;;1.10;;
51499;SDS011;39101;53.478;6.158;2024-03-02T12:57:33;2.55;;;0.80;;
51499;SDS011;39101;53.478;6.158;2024-03-02T12:59:59;2.72;;;0.80;;
51499;SDS011;39101;53.478;6.158;2024-03-02T13:02:29;2.63;;;0.95;;
51499;SDS011;39101;53.478;6.158;2024-03-02T13:04:56;1.23;;;0.65;;
51499;SDS011;39101;53.478;6.158;2024-03-02T13:07:23;2.45;;;0.70;;
51499;SDS011;39101;53.478;6.158;2024-03-02T13:09:50;2.42;;;0.88;;
51499;SDS011;39101;53.478;6.158;2024-03-02T13:12:16;4.00;;;1.27;;
51499;SDS011;39101;53.478;6.158;2024-03-02T13:14:42;3.40;;;0.80;;
51499;SDS011;39101;53.478;6.158;2024-03-02T13:17:09;2.40;;;0.70;;
51499;SDS011;39101;53.478;6.158;2024-03-02T13:19:35;4.47;;;1.38;;
51499;SDS011;39101;53.478;6.158;2024-03-02T13:22:00;5.72;;;1.08;;
51499;SDS011;39101;53.478;6.158;2024-03-02T13:24:30;4.97;;;1.10;;
51499;SDS011;39101;53.478;6.158;2024-03-02T13:26:56;1.55;;;0.85;;
51499;SDS011;39101;53.478;6.158;2024-03-02T13:29:23;3.83;;;1.13;;
51499;SDS011;39101;53.478;6.158;2024-03-02T13:31:49;3.03;;;0.90;;
51499;SDS011;39101;53.478;6.158;2024-03-02T13:34:15;1.70;;;0.70;;
51499;SDS011;39101;53.478;6.158;2024-03-02T13:36:41;1.98;;;0.75;;
51499;SDS011;39101;53.478;6.158;2024-03-02T13:39:06;3.33;;;0.90;;
51499;SDS011;39101;53.478;6.158;2024-03-02T13:41:35;2.40;;;1.38;;
51499;SDS011;39101;53.478;6.158;2024-03-02T13:44:01;4.13;;;0.98;;
51499;SDS011;39101;53.478;6.158;2024-03-02T13:46:27;1.90;;;0.88;;
51499;SDS011;39101;53.478;6.158;2024-03-02T13:48:54;2.58;;;0.70;;
51499;SDS011;39101;53.478;6.158;2024-03-02T13:51:20;2.00;;;1.13;;
51499;SDS011;39101;53.478;6.158;2024-03-02T13:53:46;3.97;;;0.90;;
51499;SDS011;39101;53.478;6.158;2024-03-02T13:56:12;4.07;;;0.90;;
51499;SDS011;39101;53.478;6.158;2024-03-02T13:58:38;4.25;;;1.05;;
51499;SDS011;39101;53.478;6.158;2024-03-02T14:01:04;3.35;;;0.93;;
51499;SDS011;39101;53.478;6.158;2024-03-02T14:03:30;3.75;;;0.80;;
51499;SDS011;39101;53.478;6.158;2024-03-02T14:05:56;3.70;;;1.95;;
51499;SDS011;39101;53.478;6.158;2024-03-02T14:08:22;6.18;;;1.10;;
51499;SDS011;39101;53.478;6.158;2024-03-02T14:10:48;3.55;;;0.90;;
51499;SDS011;39101;53.478;6.158;2024-03-02T14:13:14;3.13;;;0.70;;
51499;SDS011;39101;53.478;6.158;2024-03-02T14:15:41;3.15;;;1.02;;
51499;SDS011;39101;53.478;6.158;2024-03-02T14:18:06;2.67;;;0.90;;
51499;SDS011;39101;53.478;6.158;2024-03-02T14:20:35;2.88;;;0.90;;
51499;SDS011;39101;53.478;6.158;2024-03-02T14:23:00;1.60;;;0.88;;
51499;SDS011;39101;53.478;6.158;2024-03-02T14:25:28;4.13;;;1.20;;
51499;SDS011;39101;53.478;6.158;2024-03-02T14:27:56;4.78;;;1.20;;
51499;SDS011;39101;53.478;6.158;2024-03-02T14:30:23;4.85;;;1.45;;
51499;SDS011;39101;53.478;6.158;2024-03-02T14:32:48;3.42;;;1.13;;
51499;SDS011;39101;53.478;6.158;2024-03-02T14:35:14;2.78;;;1.23;;
51499;SDS011;39101;53.478;6.158;2024-03-02T14:37:40;5.00;;;1.63;;
51499;SDS011;39101;53.478;6.158;2024-03-02T14:40:06;4.03;;;1.48;;
51499;SDS011;39101;53.478;6.158;2024-03-02T14:42:34;2.28;;;1.20;;
51499;SDS011;39101;53.478;6.158;2024-03-02T14:45:00;5.18;;;2.05;;
51499;SDS011;39101;53.478;6.158;2024-03-02T14:47:29;5.07;;;1.75;;
51499;SDS011;39101;53.478;6.158;2024-03-02T14:49:56;4.57;;;2.13;;
51499;SDS011;39101;53.478;6.158;2024-03-02T14:52:22;4.38;;;2.88;;
51499;SDS011;39101;53.478;6.158;2024-03-02T14:54:47;5.18;;;3.00;;
51499;SDS011;39101;53.478;6.158;2024-03-02T14:57:13;7.57;;;4.13;;
51499;SDS011;39101;53.478;6.158;2024-03-02T14:59:39;6.72;;;4.40;;
51499;SDS011;39101;53.478;6.158;2024-03-02T15:02:05;7.32;;;4.85;;